Aérodrome :
LOGIN :

S'inscrire | Disclaimer

   EN    FR    IT 

 










Légende :    VFR   VFR Marginal   IFR   IFR Intensif   IFR Très Intensif
Visi : 
Plafond : 
>= 8 km
>= 3000ft
5 à 8 km
1000 à 3000 ft
1500m à 5 km
500 à 1000 ft
800 à 1500m
200 à 500 ft
< 800m
< 200 ft
Symboles :   Orages  Brouillard  Fortes neiges  Fortes précipitations  Vent > 20 kt
SIGMETs :   Divers  Orages  Givrage  Turbulence  Onde Orograph.  Cendres Volcan.






- Altitude de l'aérodrome : 370 ft


EBBE - Beauvechain AB

DERNIER METAR :
  • 140046Z AUTO 15005KT 9999 BKN025/// BKN031/// 05/04 Q0998 BLU

METARs EXPIRÉS :
  • 140033Z AUTO 15005KT 9999 SCT023/// BKN027/// BKN130/// 05/04 Q0998 WHT
  • 140022Z AUTO 16006KT 9999 FEW022/// SCT027/// BKN130/// 05/04 Q0998 BLU
  • 140003Z AUTO 16006KT 9999 FEW018/// SCT022/// 05/04 Q0998 WHT
  • 132325Z AUTO 16008KT 9999 SCT016/// 06/04 Q0998 WHT
  • 132255Z AUTO 16007KT 9999 BKN016/// 06/04 Q0999 WHT
  • 132225Z AUTO 17008KT 9999 FEW015/// SCT018/// BKN028/// 06/04 Q0999 WHT
  • 132221Z AUTO 17009KT 9999 FEW016/// SCT021/// BKN043/// 06/04 Q0999 WHT
  • 132155Z AUTO 17010KT 9999 FEW018/// SCT032/// BKN049/// 06/04 Q0999 BLU

TAF TAF EBBE
Valide du 13 à 19h jusqu'au 14 à 07h UTC


131541Z 1319/1407 20008KT 9999 FEW023 SCT180
BECMG 1405/1407 24005KT SCT012 BKN020



MET'MAP, la Météo Aéronautique d'un coup d'oeil ! - Copyright ORBIFLY Décembre 2007 - Disclaimer

ORBIFLY MET'MAP TEAM :

Programmation & Développement : Alexandra Zaïnal
Conception & Développement : Baudouin d'Aumeries
Co-Programmation & Développement : Marc-Olivier Méhu
Soutien technique & logistique : Manuel Goepfert

Contact : metmap@orbifly.com




SOURCES & CREDITS :

   NOAA